createdAt,value
2022-10-17T00:00:52.185Z,15.00
2022-10-17T00:03:20.130Z,15.77
2022-10-17T00:05:49.860Z,16.63
2022-10-17T00:08:19.154Z,16.00
2022-10-17T00:10:55.887Z,18.65
2022-10-17T00:13:25.770Z,18.33
2022-10-17T00:15:53.962Z,19.92
2022-10-17T00:18:22.170Z,19.27
2022-10-17T00:20:50.042Z,21.40
2022-10-17T00:23:18.182Z,19.20
2022-10-17T00:25:46.078Z,20.55
2022-10-17T00:28:15.932Z,21.52
2022-10-17T00:30:45.145Z,21.83
2022-10-17T00:33:13.047Z,20.50
2022-10-17T00:35:40.909Z,20.42
2022-10-17T00:38:08.764Z,20.33
2022-10-17T00:40:36.634Z,21.35
2022-10-17T00:43:04.534Z,24.83
2022-10-17T00:45:32.868Z,23.58
2022-10-17T00:48:05.953Z,21.60
2022-10-17T00:50:34.867Z,24.25
2022-10-17T00:53:05.636Z,23.90
2022-10-17T00:55:37.851Z,26.08
2022-10-17T00:58:07.592Z,25.17
2022-10-17T01:00:37.009Z,23.88
2022-10-17T01:03:06.439Z,25.30
2022-10-17T01:05:34.546Z,26.65
2022-10-17T01:08:03.532Z,25.02
2022-10-17T01:10:35.939Z,30.52
2022-10-17T01:13:12.673Z,29.98
2022-10-17T01:15:51.165Z,29.00
2022-10-17T01:18:32.718Z,33.42
2022-10-17T01:21:17.878Z,33.33
2022-10-17T01:24:30.629Z,29.48
2022-10-17T01:27:24.594Z,32.72
2022-10-17T01:30:18.510Z,32.83
2022-10-17T01:32:51.574Z,32.60
2022-10-17T01:35:26.540Z,29.23
2022-10-17T01:38:03.313Z,29.73
2022-10-17T01:40:35.738Z,31.17
2022-10-17T01:43:06.242Z,30.48
2022-10-17T01:45:40.600Z,34.63
2022-10-17T01:48:14.375Z,40.35
2022-10-17T01:50:48.283Z,42.28
2022-10-17T01:53:20.346Z,44.55
2022-10-17T01:55:51.204Z,42.90
2022-10-17T01:58:23.939Z,47.72
2022-10-17T02:00:53.983Z,44.00
2022-10-17T02:03:25.386Z,45.60
2022-10-17T02:05:53.470Z,53.53
2022-10-17T02:08:27.945Z,50.55
2022-10-17T02:10:59.343Z,52.10
2022-10-17T02:13:36.983Z,53.10
2022-10-17T02:16:14.996Z,53.08
2022-10-17T02:19:09.399Z,49.17
2022-10-17T02:21:45.542Z,51.90
2022-10-17T02:24:21.473Z,46.42
2022-10-17T02:26:54.986Z,49.97
2022-10-17T02:29:26.844Z,58.03
2022-10-17T02:31:59.484Z,60.38
2022-10-17T02:34:33.409Z,66.15
2022-10-17T02:37:06.078Z,67.00
2022-10-17T02:39:35.217Z,64.35
2022-10-17T02:42:07.112Z,59.05
2022-10-17T02:44:35.974Z,69.25
2022-10-17T02:47:12.529Z,67.70
2022-10-17T02:49:45.572Z,74.32
2022-10-17T02:52:16.781Z,78.88
2022-10-17T02:54:48.937Z,80.88
2022-10-17T02:57:26.095Z,79.82
2022-10-17T02:59:54.732Z,85.35
2022-10-17T03:02:22.610Z,82.63
2022-10-17T03:04:51.822Z,78.57
2022-10-17T03:07:19.754Z,83.35
2022-10-17T03:09:47.620Z,82.72
2022-10-17T03:12:15.497Z,79.28
2022-10-17T03:14:43.345Z,81.47
2022-10-17T03:17:11.214Z,82.20
2022-10-17T03:19:39.103Z,83.65
2022-10-17T03:22:08.341Z,84.68
2022-10-17T03:24:36.253Z,87.50
2022-10-17T03:27:04.137Z,86.57
2022-10-17T03:29:31.991Z,80.20
2022-10-17T03:31:59.896Z,85.35
2022-10-17T03:34:27.743Z,80.97
2022-10-17T03:36:55.653Z,78.97
2022-10-17T03:39:25.057Z,77.22
2022-10-17T03:41:52.882Z,74.88
2022-10-17T03:44:20.758Z,74.72
2022-10-17T03:46:48.618Z,76.90
2022-10-17T03:49:16.609Z,73.13
2022-10-17T03:51:44.461Z,68.53
2022-10-17T03:54:12.316Z,71.30
2022-10-17T03:56:41.608Z,66.05
2022-10-17T03:59:12.513Z,65.93
2022-10-17T04:01:40.455Z,63.40
2022-10-17T04:04:08.411Z,59.33
2022-10-17T04:06:36.404Z,64.53
2022-10-17T04:09:04.601Z,62.55
2022-10-17T04:11:32.491Z,60.13
2022-10-17T04:14:01.743Z,65.45
2022-10-17T04:16:30.114Z,66.50
2022-10-17T04:18:59.538Z,66.38
2022-10-17T04:21:29.113Z,67.50
2022-10-17T04:23:57.828Z,68.22
2022-10-17T04:26:26.286Z,68.82
2022-10-17T04:28:54.406Z,62.70
2022-10-17T04:31:23.721Z,66.97
2022-10-17T04:33:52.149Z,63.53
2022-10-17T04:36:22.929Z,63.20
2022-10-17T04:38:50.842Z,60.13
2022-10-17T04:41:19.780Z,61.05
2022-10-17T04:43:50.954Z,62.53
2022-10-17T04:46:19.626Z,56.45
2022-10-17T04:48:48.864Z,54.72
2022-10-17T04:51:21.766Z,56.75
2022-10-17T04:53:52.507Z,57.92
2022-10-17T04:56:22.578Z,56.28
2022-10-17T04:58:51.838Z,58.85
2022-10-17T05:01:22.168Z,55.40
2022-10-17T05:03:51.869Z,56.80
2022-10-17T05:06:21.510Z,56.08
2022-10-17T05:08:49.492Z,62.38
2022-10-17T05:11:19.248Z,64.50
2022-10-17T05:13:51.477Z,66.75
2022-10-17T05:16:19.560Z,66.97
2022-10-17T05:18:52.952Z,64.70
2022-10-17T05:21:22.151Z,69.20
2022-10-17T05:23:50.342Z,69.40
2022-10-17T05:26:18.597Z,69.95
2022-10-17T05:28:46.631Z,69.35
2022-10-17T05:31:15.644Z,71.05
2022-10-17T05:33:43.599Z,71.10
2022-10-17T05:36:12.963Z,64.35
2022-10-17T05:38:40.885Z,66.35
2022-10-17T05:41:08.754Z,65.60
2022-10-17T05:43:36.684Z,59.42
2022-10-17T05:46:06.049Z,60.42
2022-10-17T05:48:34.013Z,60.10
2022-10-17T05:51:03.256Z,59.80
2022-10-17T05:53:34.025Z,78.00
2022-10-17T05:56:04.776Z,61.42
2022-10-17T05:58:49.146Z,57.58
2022-10-17T06:01:18.993Z,53.90
2022-10-17T06:03:46.886Z,57.72
2022-10-17T06:06:16.038Z,63.25
2022-10-17T06:08:46.099Z,62.65
2022-10-17T06:11:14.606Z,61.78
2022-10-17T06:13:42.906Z,62.92
2022-10-17T06:16:10.950Z,64.10
2022-10-17T06:18:38.887Z,62.60
2022-10-17T06:21:09.106Z,67.25
2022-10-17T06:23:37.006Z,67.57
2022-10-17T06:26:07.645Z,69.65
2022-10-17T06:28:35.718Z,74.45
2022-10-17T06:31:06.999Z,77.00
2022-10-17T06:33:35.021Z,78.05
2022-10-17T06:36:02.965Z,83.07
2022-10-17T06:38:31.219Z,83.00
2022-10-17T06:41:08.408Z,84.80
2022-10-17T06:43:36.610Z,82.93
2022-10-17T06:46:04.784Z,80.18
2022-10-17T06:48:33.004Z,82.95
2022-10-17T06:51:01.638Z,84.15
2022-10-17T06:53:30.246Z,84.40
2022-10-17T06:56:02.869Z,86.82
2022-10-17T06:58:33.451Z,86.20
2022-10-17T07:01:02.331Z,81.60
2022-10-17T07:03:30.970Z,83.75
2022-10-17T07:05:59.255Z,85.22
2022-10-17T07:08:27.684Z,82.28
2022-10-17T07:10:56.427Z,87.18
2022-10-17T07:13:25.478Z,89.15
2022-10-17T07:18:26.262Z,83.13
2022-10-17T07:20:55.175Z,92.70
2022-10-17T07:23:23.244Z,97.22
2022-10-17T07:25:51.192Z,93.00
2022-10-17T07:28:19.231Z,97.90
2022-10-17T07:30:50.693Z,95.93
2022-10-17T07:33:23.062Z,98.00
2022-10-17T07:35:52.734Z,97.95
2022-10-17T07:38:20.630Z,95.15
2022-10-17T07:40:56.133Z,95.65
2022-10-17T07:43:24.605Z,98.10
2022-10-17T07:45:53.070Z,96.85
2022-10-17T07:48:24.008Z,93.95
2022-10-17T07:50:52.041Z,91.47
2022-10-17T07:53:19.991Z,100.95
2022-10-17T07:55:49.719Z,94.00
2022-10-17T07:58:18.198Z,91.68
2022-10-17T08:00:48.488Z,89.25
2022-10-17T08:03:16.714Z,93.88
2022-10-17T08:05:45.925Z,86.20
2022-10-17T08:08:13.986Z,85.35
2022-10-17T08:10:41.845Z,95.13
2022-10-17T08:13:09.786Z,92.47
2022-10-17T08:15:38.981Z,86.85
2022-10-17T08:18:06.931Z,81.28
2022-10-17T08:20:34.833Z,79.00
2022-10-17T08:23:04.087Z,83.13
2022-10-17T08:25:32.041Z,81.50
2022-10-17T08:28:00.026Z,79.93
2022-10-17T08:30:30.556Z,79.68
2022-10-17T08:32:58.556Z,79.90
2022-10-17T08:35:26.471Z,73.47
2022-10-17T08:37:54.545Z,76.43
2022-10-17T08:40:26.907Z,74.43
2022-10-17T08:45:33.969Z,73.13
2022-10-17T08:48:05.107Z,79.90
2022-10-17T08:50:37.646Z,73.93
2022-10-17T08:53:12.922Z,76.97
2022-10-17T08:55:45.902Z,70.05
2022-10-17T08:58:16.268Z,74.90
2022-10-17T09:00:50.453Z,72.57
2022-10-17T09:03:35.624Z,73.60
2022-10-17T09:06:15.329Z,66.57
2022-10-17T09:08:54.560Z,69.05
2022-10-17T09:11:39.539Z,70.20
2022-10-17T09:14:22.761Z,66.20
2022-10-17T09:17:09.664Z,72.50
2022-10-17T09:19:40.204Z,75.32
2022-10-17T09:22:11.634Z,74.43
2022-10-17T09:24:43.843Z,71.83
2022-10-17T09:27:23.106Z,69.65
2022-10-17T09:29:55.486Z,71.05
2022-10-17T09:32:26.267Z,71.15
2022-10-17T09:34:54.490Z,67.07
2022-10-17T09:37:33.499Z,66.78
2022-10-17T09:40:01.464Z,58.50
2022-10-17T09:42:32.149Z,59.00
2022-10-17T09:45:15.354Z,59.22
2022-10-17T09:50:26.380Z,56.72
2022-10-17T09:52:55.029Z,54.78
2022-10-17T09:55:31.117Z,52.35
2022-10-17T09:58:01.652Z,54.95
2022-10-17T10:00:31.707Z,49.60
2022-10-17T10:03:18.389Z,51.25
2022-10-17T10:06:01.450Z,52.83
2022-10-17T10:08:32.113Z,58.47
2022-10-17T10:11:04.287Z,50.25
2022-10-17T10:13:35.132Z,56.10
2022-10-17T10:16:24.186Z,53.97
2022-10-17T10:18:53.076Z,54.58
2022-10-17T10:21:23.165Z,40.65
2022-10-17T10:24:06.803Z,47.40
2022-10-17T10:26:39.805Z,39.85
2022-10-17T10:29:23.367Z,41.58
2022-10-17T10:31:52.421Z,40.63
2022-10-17T10:34:23.343Z,35.63
2022-10-17T10:36:58.448Z,30.42
2022-10-17T10:39:46.955Z,24.00
2022-10-17T10:42:26.265Z,21.17
2022-10-17T10:45:00.051Z,24.75
2022-10-17T10:47:30.424Z,19.48
2022-10-17T10:50:28.906Z,18.40
2022-10-17T10:53:34.738Z,17.35
2022-10-17T10:56:15.427Z,16.35
2022-10-17T10:58:52.794Z,18.70
2022-10-17T11:01:30.554Z,18.10
2022-10-17T11:04:18.628Z,15.85
2022-10-17T11:06:48.225Z,14.73
2022-10-17T11:09:27.745Z,15.25
2022-10-17T11:12:02.906Z,15.47
2022-10-17T11:14:41.610Z,13.57
2022-10-17T11:17:19.445Z,13.85
2022-10-17T11:19:57.269Z,16.55
2022-10-17T11:22:29.583Z,16.40
2022-10-17T11:25:01.271Z,14.90
2022-10-17T11:27:30.954Z,13.93
2022-10-17T11:29:59.754Z,13.98
2022-10-17T11:32:33.202Z,12.55
2022-10-17T11:35:05.452Z,14.48
2022-10-17T11:40:07.258Z,14.43
2022-10-17T11:42:40.548Z,14.80
2022-10-17T11:45:13.230Z,12.85
2022-10-17T11:47:47.766Z,10.73
2022-10-17T11:53:17.150Z,14.35
2022-10-17T11:55:46.662Z,10.93
2022-10-17T11:58:26.738Z,12.07
2022-10-17T12:01:06.106Z,13.73
2022-10-17T12:03:53.978Z,14.18
2022-10-17T12:06:33.285Z,11.63
2022-10-17T12:09:10.696Z,9.30
2022-10-17T12:11:50.763Z,10.27
2022-10-17T12:14:39.701Z,10.77
2022-10-17T12:17:24.869Z,11.55
2022-10-17T12:19:54.247Z,12.52
2022-10-17T12:22:25.982Z,14.07
2022-10-17T12:25:00.484Z,12.43
2022-10-17T12:27:50.130Z,10.45
2022-10-17T12:30:21.929Z,9.68
2022-10-17T12:33:08.014Z,9.05
2022-10-17T12:35:39.251Z,8.68
2022-10-17T12:38:27.759Z,6.15
2022-10-17T12:41:03.221Z,6.97
2022-10-17T12:43:57.876Z,7.38
2022-10-17T12:46:47.953Z,8.93
2022-10-17T12:49:43.364Z,7.70
2022-10-17T12:52:31.169Z,9.48
2022-10-17T12:55:12.531Z,9.00
2022-10-17T12:57:48.347Z,7.50
2022-10-17T13:00:21.121Z,6.78
2022-10-17T13:02:50.873Z,7.55
2022-10-17T13:05:29.720Z,10.75
2022-10-17T13:08:02.107Z,10.07
2022-10-17T13:10:33.146Z,7.15
2022-10-17T13:13:07.663Z,6.30
2022-10-17T13:15:37.810Z,6.93
2022-10-17T13:18:06.012Z,8.07
2022-10-17T13:20:34.144Z,7.93
2022-10-17T13:23:03.793Z,6.95
2022-10-17T13:25:31.762Z,9.38
2022-10-17T13:28:14.650Z,7.90
2022-10-17T13:30:49.658Z,6.20
2022-10-17T13:33:29.664Z,5.90
2022-10-17T13:36:01.371Z,8.77
2022-10-17T13:38:34.928Z,6.57
2022-10-17T13:41:30.562Z,5.22
2022-10-17T13:43:54.070Z,6.70
2022-10-17T13:46:37.365Z,9.70
2022-10-17T13:49:18.845Z,7.32
2022-10-17T13:51:48.919Z,8.00
2022-10-17T13:54:34.939Z,10.48
2022-10-17T13:57:04.625Z,7.75
2022-10-17T13:59:38.723Z,8.50
2022-10-17T14:02:12.579Z,12.95
2022-10-17T14:05:11.569Z,10.80
2022-10-17T14:07:58.144Z,9.13
2022-10-17T14:10:26.916Z,11.18
2022-10-17T14:12:55.770Z,8.32
2022-10-17T14:15:27.594Z,8.15
2022-10-17T14:17:57.683Z,9.20
2022-10-17T14:23:35.542Z,10.13
2022-10-17T14:26:11.134Z,7.97
2022-10-17T14:28:40.160Z,6.68
2022-10-17T14:31:15.068Z,8.80
2022-10-17T14:33:50.492Z,7.60
2022-10-17T14:36:20.151Z,11.95
2022-10-17T14:38:50.503Z,6.78
2022-10-17T14:41:42.000Z,8.23
2022-10-17T14:46:50.740Z,7.65
2022-10-17T14:49:25.167Z,11.02
2022-10-17T14:52:28.684Z,8.80
2022-10-17T14:54:57.813Z,9.55
2022-10-17T14:57:41.750Z,8.73
2022-10-17T15:00:14.502Z,7.50
2022-10-17T15:02:42.452Z,11.70
2022-10-17T15:05:13.200Z,10.77
2022-10-17T15:07:42.086Z,7.07
2022-10-17T15:10:25.283Z,8.63
2022-10-17T15:12:58.943Z,5.60
2022-10-17T15:15:33.271Z,6.25
2022-10-17T15:18:01.631Z,12.38
2022-10-17T15:20:30.449Z,9.02
2022-10-17T15:22:59.837Z,7.82
2022-10-17T15:25:28.795Z,10.02
2022-10-17T15:27:59.153Z,7.55
2022-10-17T15:30:29.122Z,9.77
2022-10-17T15:32:57.660Z,8.07
2022-10-17T15:35:27.155Z,9.77
2022-10-17T15:37:55.319Z,8.40
2022-10-17T15:40:25.929Z,12.82
2022-10-17T15:42:53.786Z,11.18
2022-10-17T15:45:24.132Z,10.82
2022-10-17T15:47:53.770Z,10.55
2022-10-17T15:50:22.736Z,8.73
2022-10-17T15:52:52.233Z,9.18
2022-10-17T15:55:20.992Z,10.13
2022-10-17T15:57:49.911Z,9.52
2022-10-17T16:00:19.993Z,11.60
2022-10-17T16:02:50.227Z,9.43
2022-10-17T16:05:23.159Z,12.27
2022-10-17T16:07:51.513Z,9.55
2022-10-17T16:10:20.959Z,9.00
2022-10-17T16:12:50.206Z,10.48
2022-10-17T16:15:22.759Z,11.10
2022-10-17T16:20:20.887Z,7.50
2022-10-17T16:22:49.730Z,9.50
2022-10-17T16:25:20.609Z,8.85
2022-10-17T16:27:49.761Z,10.35
2022-10-17T16:30:18.709Z,9.55
2022-10-17T16:32:46.900Z,7.38
2022-10-17T16:35:20.380Z,9.23
2022-10-17T16:37:48.538Z,8.82
2022-10-17T16:40:17.388Z,8.48
2022-10-17T16:42:45.871Z,10.20
2022-10-17T16:45:18.833Z,14.13
2022-10-17T16:47:47.270Z,10.60
2022-10-17T16:50:16.975Z,9.10
2022-10-17T16:52:44.966Z,8.85
2022-10-17T16:55:12.873Z,12.98
2022-10-17T16:57:40.873Z,12.20
2022-10-17T17:00:11.883Z,9.07
2022-10-17T17:02:39.831Z,9.15
2022-10-17T17:05:08.977Z,10.45
2022-10-17T17:07:38.187Z,11.18
2022-10-17T17:10:07.090Z,8.48
2022-10-17T17:12:36.196Z,10.07
2022-10-17T17:15:04.738Z,10.23
2022-10-17T17:17:48.811Z,7.85
2022-10-17T17:20:19.283Z,10.13
2022-10-17T17:22:48.773Z,12.15
2022-10-17T17:25:16.742Z,10.57
2022-10-17T17:27:44.622Z,7.60
2022-10-17T17:30:13.047Z,11.32
2022-10-17T17:32:41.079Z,9.55
2022-10-17T17:35:09.930Z,8.15
2022-10-17T17:37:37.853Z,13.88
2022-10-17T17:40:08.500Z,10.63
2022-10-17T17:42:36.423Z,9.68
2022-10-17T17:45:05.362Z,13.32
2022-10-17T17:47:33.516Z,10.63
2022-10-17T17:50:02.403Z,13.32
2022-10-17T17:52:30.864Z,13.48
2022-10-17T17:54:58.993Z,12.85
2022-10-17T17:57:30.376Z,11.23
2022-10-17T17:59:58.250Z,11.37
2022-10-17T18:02:26.124Z,11.38
2022-10-17T18:04:53.984Z,13.18
2022-10-17T18:07:21.857Z,13.05
2022-10-17T18:09:51.049Z,14.05
2022-10-17T18:12:18.957Z,15.50
2022-10-17T18:14:48.961Z,15.15
2022-10-17T18:17:16.880Z,14.55
2022-10-17T18:19:44.810Z,16.10
2022-10-17T18:22:12.685Z,16.08
2022-10-17T18:24:40.631Z,14.23
2022-10-17T18:27:08.558Z,14.63
2022-10-17T18:29:36.547Z,15.43
2022-10-17T18:32:06.051Z,15.93
2022-10-17T18:34:33.923Z,14.70
2022-10-17T18:37:02.606Z,16.95
2022-10-17T18:39:30.663Z,13.02
2022-10-17T18:41:59.050Z,12.90
2022-10-17T18:44:27.157Z,16.48
2022-10-17T18:46:58.502Z,15.15
2022-10-17T18:49:30.840Z,14.93
2022-10-17T18:51:59.491Z,15.13
2022-10-17T18:54:27.357Z,17.05
2022-10-17T18:56:56.458Z,14.05
2022-10-17T18:59:24.386Z,18.80
2022-10-17T19:01:52.389Z,17.45
2022-10-17T19:04:20.306Z,16.83
2022-10-17T19:06:49.555Z,15.27
2022-10-17T19:09:17.483Z,14.45
2022-10-17T19:11:45.393Z,13.02
2022-10-17T19:14:14.144Z,15.18
2022-10-17T19:16:44.148Z,15.90
2022-10-17T19:19:14.727Z,14.93
2022-10-17T19:21:43.365Z,15.25
2022-10-17T19:24:16.235Z,15.25
2022-10-17T19:26:45.544Z,13.32
2022-10-17T19:29:15.294Z,14.52
2022-10-17T19:31:43.999Z,14.23
2022-10-17T19:34:12.175Z,15.80
2022-10-17T19:36:40.910Z,17.30
2022-10-17T19:39:13.967Z,15.85
2022-10-17T19:41:42.786Z,16.63
2022-10-17T19:44:11.344Z,14.65
2022-10-17T19:46:39.995Z,14.60
2022-10-17T19:49:08.348Z,15.30
2022-10-17T19:51:36.318Z,15.00
2022-10-17T19:54:04.745Z,18.33
2022-10-17T19:56:37.713Z,19.90
2022-10-17T19:59:06.231Z,19.73
2022-10-17T20:01:36.199Z,17.92
2022-10-17T20:04:04.196Z,18.30
2022-10-17T20:06:33.527Z,21.98
2022-10-17T20:09:01.574Z,23.15
2022-10-17T20:11:30.350Z,24.23
2022-10-17T20:14:01.005Z,21.98
2022-10-17T20:16:30.313Z,20.23
2022-10-17T20:19:02.501Z,19.92
2022-10-17T20:21:34.871Z,23.73
2022-10-17T20:26:39.691Z,25.52
2022-10-17T20:29:14.255Z,21.75
2022-10-17T20:31:44.182Z,23.40
2022-10-17T20:34:14.623Z,24.35
2022-10-17T20:36:42.889Z,24.58
2022-10-17T20:39:12.446Z,26.23
2022-10-17T20:41:40.789Z,28.50
2022-10-17T20:44:10.418Z,25.77
2022-10-17T20:46:44.664Z,25.67
2022-10-17T20:49:18.217Z,27.75
2022-10-17T20:51:46.587Z,29.10
2022-10-17T20:54:14.605Z,28.08
2022-10-17T20:56:42.574Z,27.95
2022-10-17T20:59:16.273Z,28.98
2022-10-17T21:01:45.035Z,25.23
2022-10-17T21:04:43.987Z,26.90
2022-10-17T21:07:05.061Z,25.83
2022-10-17T21:09:33.025Z,25.00
2022-10-17T21:14:36.471Z,27.80
2022-10-17T21:17:05.484Z,25.23
2022-10-17T21:19:33.788Z,27.45
2022-10-17T21:22:04.675Z,27.50
2022-10-17T21:24:32.868Z,27.98
2022-10-17T21:27:01.200Z,28.00
2022-10-17T21:29:29.079Z,27.25
2022-10-17T21:31:58.357Z,26.02
2022-10-17T21:34:29.501Z,33.08
2022-10-17T21:36:57.380Z,32.22
2022-10-17T21:39:25.397Z,27.60
2022-10-17T21:41:53.824Z,26.63
2022-10-17T21:44:23.954Z,27.88
2022-10-17T21:46:52.508Z,27.95
2022-10-17T21:49:23.622Z,26.67
2022-10-17T21:51:52.946Z,27.38
2022-10-17T21:54:22.922Z,28.20
2022-10-17T21:56:51.402Z,26.48
2022-10-17T21:59:19.432Z,24.08
2022-10-17T22:01:47.729Z,29.15
2022-10-17T22:04:17.056Z,26.63
2022-10-17T22:06:47.994Z,28.83
2022-10-17T22:09:17.622Z,35.13
2022-10-17T22:11:46.950Z,31.30
2022-10-17T22:14:17.013Z,27.70
2022-10-17T22:16:46.585Z,27.70
2022-10-17T22:19:17.038Z,28.13
2022-10-17T22:21:46.353Z,29.05
2022-10-17T22:24:17.121Z,30.17
2022-10-17T22:26:45.992Z,29.77
2022-10-17T22:29:14.313Z,32.72
2022-10-17T22:31:42.330Z,34.50
2022-10-17T22:34:13.466Z,31.30
2022-10-17T22:36:41.740Z,27.98
2022-10-17T22:39:11.954Z,29.83
2022-10-17T22:41:39.981Z,28.98
2022-10-17T22:44:08.026Z,31.60
2022-10-17T22:46:36.234Z,32.35
2022-10-17T22:49:04.520Z,31.63
2022-10-17T22:51:32.964Z,28.85
2022-10-17T22:54:00.873Z,29.67
2022-10-17T22:56:30.135Z,26.40
2022-10-17T22:58:58.025Z,23.90
2022-10-17T23:01:27.245Z,27.95
2022-10-17T23:03:55.366Z,24.33
2022-10-17T23:06:24.774Z,23.60
2022-10-17T23:08:53.205Z,24.65
2022-10-17T23:11:21.792Z,28.27
2022-10-17T23:13:51.053Z,25.17
2022-10-17T23:16:18.958Z,23.65
2022-10-17T23:18:46.955Z,30.75
2022-10-17T23:21:14.891Z,31.27
2022-10-17T23:23:42.794Z,29.67
2022-10-17T23:26:12.806Z,26.40
2022-10-17T23:28:41.289Z,22.63
2022-10-17T23:31:15.883Z,23.60
2022-10-17T23:33:45.111Z,20.90
2022-10-17T23:36:14.603Z,22.00
2022-10-17T23:38:43.791Z,22.17
2022-10-17T23:41:12.155Z,21.77
2022-10-17T23:43:40.361Z,22.02
2022-10-17T23:46:08.944Z,21.48
2022-10-17T23:48:38.904Z,20.20
2022-10-17T23:51:07.450Z,19.98
2022-10-17T23:53:35.549Z,22.10
2022-10-17T23:56:03.440Z,26.25
2022-10-17T23:58:31.694Z,22.73
